Aérodrome :
LOGIN :

S'inscrire | Disclaimer

   EN    FR    IT 

 










Légende :    VFR   VFR Marginal   IFR   IFR Intensif   IFR Très Intensif
Visi : 
Plafond : 
>= 8 km
>= 3000ft
5 à 8 km
1000 à 3000 ft
1500m à 5 km
500 à 1000 ft
800 à 1500m
200 à 500 ft
< 800m
< 200 ft
Symboles :   Orages  Brouillard  Fortes neiges  Fortes précipitations  Vent > 20 kt
SIGMETs :   Divers  Orages  Givrage  Turbulence  Onde Orograph.  Cendres Volcan.






- Altitude de l'aérodrome : 26 ft
- Code IATA : BIA


LFKB - Bastia

DERNIER METAR :
  • 110300Z AUTO 22004KT 180V260 9999 FEW054 06/02 Q1018 NOSIG

METARs EXPIRÉS :
  • 110230Z AUTO 33005KT 250V040 9999 BKN056 09/02 Q1019 NOSIG
  • 110200Z AUTO 02009KT 9999 SCT056 11/02 Q1019 NOSIG
  • 110130Z AUTO 02011KT 9999 FEW062 12/02 Q1019 NOSIG
  • 110100Z AUTO 03011KT CAVOK 12/02 Q1019 NOSIG
  • 110030Z AUTO 03008KT 360V060 CAVOK 12/03 Q1019 NOSIG

TAF TAF LFKB
Valide du 11 à 03h jusqu'au 12 à 03h UTC


110200Z 1103/1203 24006KT 9999 FEW050 TX15/1112Z TN06/1105Z
TEMPO 1109/1116 33007KT
BECMG 1121/1123 FEW040 BKN090
TEMPO 1200/1203 SHRA SCT030TCU BKN050
ATIS : +33 4 95 59 19 40



MET'MAP, la Météo Aéronautique d'un coup d'oeil ! - Copyright ORBIFLY Décembre 2007 - Disclaimer

ORBIFLY MET'MAP TEAM :

Programmation & Développement : Alexandra Zaïnal
Sur une idée originale de : Baudouin d'Aumeries
Assistance à la programmation : Marc-Olivier Méhu
Soutien technique & logistique : Manuel Goepfert

Contact : metmap@orbifly.com




SOURCES & CREDITS :

   NOAA